sensor_id;sensor_type;location;lat;lon;timestamp;P1;durP1;ratioP1;P2;durP2;ratioP2
54269;SDS011;40181;51.560;13.000;2023-10-19T00:02:46;3.47;;;2.90;;
54269;SDS011;40181;51.560;13.000;2023-10-19T00:05:20;4.45;;;3.35;;
54269;SDS011;40181;51.560;13.000;2023-10-19T00:07:51;4.07;;;2.95;;
54269;SDS011;40181;51.560;13.000;2023-10-19T00:10:22;4.65;;;3.33;;
54269;SDS011;40181;51.560;13.000;2023-10-19T00:12:57;4.10;;;2.95;;
54269;SDS011;40181;51.560;13.000;2023-10-19T00:15:28;3.50;;;2.90;;
54269;SDS011;40181;51.560;13.000;2023-10-19T00:18:03;4.38;;;3.53;;
54269;SDS011;40181;51.560;13.000;2023-10-19T00:20:45;22.60;;;3.55;;
54269;SDS011;40181;51.560;13.000;2023-10-19T00:23:24;8.40;;;3.45;;
54269;SDS011;40181;51.560;13.000;2023-10-19T00:25:57;3.97;;;3.35;;
54269;SDS011;40181;51.560;13.000;2023-10-19T00:28:33;5.82;;;3.97;;
54269;SDS011;40181;51.560;13.000;2023-10-19T00:31:01;4.72;;;3.20;;
54269;SDS011;40181;51.560;13.000;2023-10-19T00:33:35;6.15;;;2.97;;
54269;SDS011;40181;51.560;13.000;2023-10-19T00:36:06;3.38;;;2.85;;
54269;SDS011;40181;51.560;13.000;2023-10-19T00:38:38;8.05;;;3.25;;
54269;SDS011;40181;51.560;13.000;2023-10-19T00:41:15;3.88;;;2.78;;
54269;SDS011;40181;51.560;13.000;2023-10-19T00:43:53;5.72;;;3.28;;
54269;SDS011;40181;51.560;13.000;2023-10-19T00:46:28;3.97;;;3.15;;
54269;SDS011;40181;51.560;13.000;2023-10-19T00:49:07;5.38;;;3.22;;
54269;SDS011;40181;51.560;13.000;2023-10-19T00:51:40;6.07;;;4.45;;
54269;SDS011;40181;51.560;13.000;2023-10-19T00:54:20;14.60;;;3.47;;
54269;SDS011;40181;51.560;13.000;2023-10-19T00:56:58;4.03;;;3.13;;
54269;SDS011;40181;51.560;13.000;2023-10-19T00:59:31;7.05;;;3.95;;
54269;SDS011;40181;51.560;13.000;2023-10-19T01:02:08;6.78;;;3.83;;
54269;SDS011;40181;51.560;13.000;2023-10-19T01:04:56;5.53;;;3.42;;
54269;SDS011;40181;51.560;13.000;2023-10-19T01:07:29;4.72;;;3.92;;
54269;SDS011;40181;51.560;13.000;2023-10-19T01:10:03;4.72;;;3.38;;
54269;SDS011;40181;51.560;13.000;2023-10-19T01:12:37;6.53;;;3.78;;
54269;SDS011;40181;51.560;13.000;2023-10-19T01:15:09;3.63;;;2.70;;
54269;SDS011;40181;51.560;13.000;2023-10-19T01:17:42;4.57;;;3.22;;
54269;SDS011;40181;51.560;13.000;2023-10-19T01:20:19;6.70;;;3.25;;
54269;SDS011;40181;51.560;13.000;2023-10-19T01:23:02;4.82;;;2.92;;
54269;SDS011;40181;51.560;13.000;2023-10-19T01:25:46;3.95;;;3.00;;
54269;SDS011;40181;51.560;13.000;2023-10-19T01:28:25;5.65;;;3.97;;
54269;SDS011;40181;51.560;13.000;2023-10-19T01:31:07;5.35;;;3.35;;
54269;SDS011;40181;51.560;13.000;2023-10-19T01:33:40;3.47;;;2.75;;
54269;SDS011;40181;51.560;13.000;2023-10-19T01:36:10;3.40;;;2.72;;
54269;SDS011;40181;51.560;13.000;2023-10-19T01:38:52;4.72;;;3.08;;
54269;SDS011;40181;51.560;13.000;2023-10-19T01:41:26;6.22;;;3.33;;
54269;SDS011;40181;51.560;13.000;2023-10-19T01:43:56;6.55;;;3.60;;
54269;SDS011;40181;51.560;13.000;2023-10-19T01:46:29;4.20;;;2.90;;
54269;SDS011;40181;51.560;13.000;2023-10-19T01:48:58;4.47;;;2.42;;
54269;SDS011;40181;51.560;13.000;2023-10-19T01:51:30;4.25;;;2.85;;
54269;SDS011;40181;51.560;13.000;2023-10-19T01:54:00;3.50;;;2.60;;
54269;SDS011;40181;51.560;13.000;2023-10-19T01:56:31;8.52;;;3.40;;
54269;SDS011;40181;51.560;13.000;2023-10-19T01:59:00;3.10;;;2.47;;
54269;SDS011;40181;51.560;13.000;2023-10-19T02:01:33;6.22;;;2.90;;
54269;SDS011;40181;51.560;13.000;2023-10-19T02:04:03;2.55;;;2.00;;
54269;SDS011;40181;51.560;13.000;2023-10-19T02:06:37;4.97;;;2.67;;
54269;SDS011;40181;51.560;13.000;2023-10-19T02:09:09;3.25;;;2.67;;
54269;SDS011;40181;51.560;13.000;2023-10-19T02:11:47;6.07;;;2.85;;
54269;SDS011;40181;51.560;13.000;2023-10-19T02:14:20;6.05;;;3.80;;
54269;SDS011;40181;51.560;13.000;2023-10-19T02:16:50;6.13;;;2.63;;
54269;SDS011;40181;51.560;13.000;2023-10-19T02:19:21;5.35;;;3.13;;
54269;SDS011;40181;51.560;13.000;2023-10-19T02:21:52;4.97;;;3.08;;
54269;SDS011;40181;51.560;13.000;2023-10-19T02:24:26;3.40;;;2.65;;
54269;SDS011;40181;51.560;13.000;2023-10-19T02:26:53;5.05;;;2.85;;
54269;SDS011;40181;51.560;13.000;2023-10-19T02:29:25;5.07;;;3.33;;
54269;SDS011;40181;51.560;13.000;2023-10-19T02:31:52;3.72;;;2.67;;
54269;SDS011;40181;51.560;13.000;2023-10-19T02:34:22;5.38;;;3.08;;
54269;SDS011;40181;51.560;13.000;2023-10-19T02:36:49;3.80;;;2.63;;
54269;SDS011;40181;51.560;13.000;2023-10-19T02:39:18;6.63;;;2.50;;
54269;SDS011;40181;51.560;13.000;2023-10-19T02:41:48;4.65;;;2.72;;
54269;SDS011;40181;51.560;13.000;2023-10-19T02:44:20;10.48;;;2.88;;
54269;SDS011;40181;51.560;13.000;2023-10-19T02:46:47;5.70;;;2.67;;
54269;SDS011;40181;51.560;13.000;2023-10-19T02:49:23;3.40;;;2.58;;
54269;SDS011;40181;51.560;13.000;2023-10-19T02:51:51;3.40;;;2.08;;
54269;SDS011;40181;51.560;13.000;2023-10-19T02:54:27;4.22;;;2.50;;
54269;SDS011;40181;51.560;13.000;2023-10-19T02:57:00;3.35;;;2.47;;
54269;SDS011;40181;51.560;13.000;2023-10-19T02:59:31;6.07;;;2.22;;
54269;SDS011;40181;51.560;13.000;2023-10-19T03:01:59;2.75;;;2.00;;
54269;SDS011;40181;51.560;13.000;2023-10-19T03:04:32;4.38;;;2.85;;
54269;SDS011;40181;51.560;13.000;2023-10-19T03:07:00;5.10;;;2.95;;
54269;SDS011;40181;51.560;13.000;2023-10-19T03:09:30;3.45;;;2.60;;
54269;SDS011;40181;51.560;13.000;2023-10-19T03:12:04;4.60;;;2.78;;
54269;SDS011;40181;51.560;13.000;2023-10-19T03:14:38;3.05;;;2.40;;
54269;SDS011;40181;51.560;13.000;2023-10-19T03:17:06;2.67;;;2.35;;
54269;SDS011;40181;51.560;13.000;2023-10-19T03:19:36;3.70;;;2.92;;
54269;SDS011;40181;51.560;13.000;2023-10-19T03:22:03;2.72;;;2.20;;
54269;SDS011;40181;51.560;13.000;2023-10-19T03:24:34;4.65;;;2.90;;
54269;SDS011;40181;51.560;13.000;2023-10-19T03:27:03;3.55;;;2.70;;
54269;SDS011;40181;51.560;13.000;2023-10-19T03:29:38;4.25;;;2.58;;
54269;SDS011;40181;51.560;13.000;2023-10-19T03:32:05;4.35;;;3.10;;
54269;SDS011;40181;51.560;13.000;2023-10-19T03:34:35;3.97;;;2.83;;
54269;SDS011;40181;51.560;13.000;2023-10-19T03:37:08;5.07;;;3.00;;
54269;SDS011;40181;51.560;13.000;2023-10-19T03:39:39;3.45;;;2.22;;
54269;SDS011;40181;51.560;13.000;2023-10-19T03:42:13;3.38;;;2.72;;
54269;SDS011;40181;51.560;13.000;2023-10-19T03:44:45;4.13;;;2.88;;
54269;SDS011;40181;51.560;13.000;2023-10-19T03:47:19;3.25;;;1.88;;
54269;SDS011;40181;51.560;13.000;2023-10-19T03:49:51;6.55;;;2.85;;
54269;SDS011;40181;51.560;13.000;2023-10-19T03:52:21;3.95;;;2.63;;
54269;SDS011;40181;51.560;13.000;2023-10-19T03:54:55;3.15;;;2.35;;
54269;SDS011;40181;51.560;13.000;2023-10-19T03:57:27;3.05;;;2.17;;
54269;SDS011;40181;51.560;13.000;2023-10-19T04:00:00;2.95;;;2.22;;
54269;SDS011;40181;51.560;13.000;2023-10-19T04:02:40;3.75;;;2.72;;
54269;SDS011;40181;51.560;13.000;2023-10-19T04:05:10;6.05;;;3.45;;
54269;SDS011;40181;51.560;13.000;2023-10-19T04:07:45;4.32;;;2.90;;
54269;SDS011;40181;51.560;13.000;2023-10-19T04:10:15;5.25;;;2.80;;
54269;SDS011;40181;51.560;13.000;2023-10-19T04:12:59;3.28;;;2.65;;
54269;SDS011;40181;51.560;13.000;2023-10-19T04:15:29;3.72;;;2.92;;
54269;SDS011;40181;51.560;13.000;2023-10-19T04:17:59;2.88;;;2.38;;
54269;SDS011;40181;51.560;13.000;2023-10-19T04:20:34;4.30;;;2.47;;
54269;SDS011;40181;51.560;13.000;2023-10-19T04:23:19;5.15;;;3.22;;
54269;SDS011;40181;51.560;13.000;2023-10-19T04:25:52;5.95;;;3.20;;
54269;SDS011;40181;51.560;13.000;2023-10-19T04:28:26;9.98;;;4.28;;
54269;SDS011;40181;51.560;13.000;2023-10-19T04:31:03;4.13;;;3.20;;
54269;SDS011;40181;51.560;13.000;2023-10-19T04:33:38;5.43;;;2.55;;
54269;SDS011;40181;51.560;13.000;2023-10-19T04:36:11;4.82;;;2.88;;
54269;SDS011;40181;51.560;13.000;2023-10-19T04:38:44;3.63;;;2.78;;
54269;SDS011;40181;51.560;13.000;2023-10-19T04:41:13;3.75;;;2.60;;
54269;SDS011;40181;51.560;13.000;2023-10-19T04:43:45;4.57;;;3.22;;
54269;SDS011;40181;51.560;13.000;2023-10-19T04:46:17;3.28;;;2.47;;
54269;SDS011;40181;51.560;13.000;2023-10-19T04:48:47;4.00;;;2.75;;
54269;SDS011;40181;51.560;13.000;2023-10-19T04:51:17;3.73;;;2.80;;
54269;SDS011;40181;51.560;13.000;2023-10-19T04:53:46;3.75;;;2.63;;
54269;SDS011;40181;51.560;13.000;2023-10-19T04:56:15;4.55;;;3.17;;
54269;SDS011;40181;51.560;13.000;2023-10-19T04:58:47;2.88;;;2.28;;
54269;SDS011;40181;51.560;13.000;2023-10-19T05:01:18;2.63;;;2.03;;
54269;SDS011;40181;51.560;13.000;2023-10-19T05:03:48;3.95;;;2.95;;
54269;SDS011;40181;51.560;13.000;2023-10-19T05:06:18;4.18;;;2.22;;
54269;SDS011;40181;51.560;13.000;2023-10-19T05:08:47;4.95;;;3.05;;
54269;SDS011;40181;51.560;13.000;2023-10-19T05:11:17;4.05;;;3.00;;
54269;SDS011;40181;51.560;13.000;2023-10-19T05:13:49;6.13;;;3.67;;
54269;SDS011;40181;51.560;13.000;2023-10-19T05:16:18;4.60;;;3.35;;
54269;SDS011;40181;51.560;13.000;2023-10-19T05:18:47;4.18;;;3.33;;
54269;SDS011;40181;51.560;13.000;2023-10-19T05:21:17;3.63;;;3.10;;
54269;SDS011;40181;51.560;13.000;2023-10-19T05:23:46;4.47;;;3.00;;
54269;SDS011;40181;51.560;13.000;2023-10-19T05:26:16;5.15;;;3.45;;
54269;SDS011;40181;51.560;13.000;2023-10-19T05:28:45;6.88;;;3.85;;
54269;SDS011;40181;51.560;13.000;2023-10-19T05:31:17;4.25;;;3.10;;
54269;SDS011;40181;51.560;13.000;2023-10-19T05:33:46;4.85;;;3.45;;
54269;SDS011;40181;51.560;13.000;2023-10-19T05:36:16;5.28;;;3.00;;
54269;SDS011;40181;51.560;13.000;2023-10-19T05:38:45;5.97;;;3.75;;
54269;SDS011;40181;51.560;13.000;2023-10-19T05:41:16;6.07;;;3.70;;
54269;SDS011;40181;51.560;13.000;2023-10-19T05:43:49;5.10;;;3.43;;
54269;SDS011;40181;51.560;13.000;2023-10-19T05:46:18;7.07;;;3.22;;
54269;SDS011;40181;51.560;13.000;2023-10-19T05:48:50;3.75;;;2.80;;
54269;SDS011;40181;51.560;13.000;2023-10-19T05:51:21;6.00;;;3.95;;
54269;SDS011;40181;51.560;13.000;2023-10-19T05:53:51;6.53;;;4.13;;
54269;SDS011;40181;51.560;13.000;2023-10-19T05:56:26;6.63;;;4.32;;
54269;SDS011;40181;51.560;13.000;2023-10-19T05:58:58;6.68;;;3.90;;
54269;SDS011;40181;51.560;13.000;2023-10-19T06:01:28;8.13;;;4.90;;
54269;SDS011;40181;51.560;13.000;2023-10-19T06:03:58;5.72;;;3.58;;
54269;SDS011;40181;51.560;13.000;2023-10-19T06:06:28;6.55;;;4.70;;
54269;SDS011;40181;51.560;13.000;2023-10-19T06:08:57;9.10;;;4.65;;
54269;SDS011;40181;51.560;13.000;2023-10-19T06:11:28;6.22;;;5.15;;
54269;SDS011;40181;51.560;13.000;2023-10-19T06:14:01;4.45;;;3.80;;
54269;SDS011;40181;51.560;13.000;2023-10-19T06:16:32;7.47;;;4.78;;
54269;SDS011;40181;51.560;13.000;2023-10-19T06:19:01;6.22;;;4.88;;
54269;SDS011;40181;51.560;13.000;2023-10-19T06:21:31;5.18;;;4.68;;
54269;SDS011;40181;51.560;13.000;2023-10-19T06:24:00;5.55;;;4.47;;
54269;SDS011;40181;51.560;13.000;2023-10-19T06:26:30;7.97;;;5.77;;
54269;SDS011;40181;51.560;13.000;2023-10-19T06:29:03;9.70;;;5.68;;
54269;SDS011;40181;51.560;13.000;2023-10-19T06:31:32;12.35;;;4.93;;
54269;SDS011;40181;51.560;13.000;2023-10-19T06:34:02;4.47;;;4.07;;
54269;SDS011;40181;51.560;13.000;2023-10-19T06:36:31;7.22;;;4.60;;
54269;SDS011;40181;51.560;13.000;2023-10-19T06:39:03;6.82;;;4.95;;
54269;SDS011;40181;51.560;13.000;2023-10-19T06:41:33;10.18;;;6.00;;
54269;SDS011;40181;51.560;13.000;2023-10-19T06:44:05;9.10;;;5.90;;
54269;SDS011;40181;51.560;13.000;2023-10-19T06:46:36;9.60;;;4.78;;
54269;SDS011;40181;51.560;13.000;2023-10-19T06:49:05;6.65;;;5.10;;
54269;SDS011;40181;51.560;13.000;2023-10-19T06:51:34;7.10;;;4.97;;
54269;SDS011;40181;51.560;13.000;2023-10-19T06:54:04;6.72;;;5.10;;
54269;SDS011;40181;51.560;13.000;2023-10-19T06:56:33;6.97;;;4.95;;
54269;SDS011;40181;51.560;13.000;2023-10-19T06:59:06;7.18;;;5.53;;
54269;SDS011;40181;51.560;13.000;2023-10-19T07:01:36;5.55;;;4.22;;
54269;SDS011;40181;51.560;13.000;2023-10-19T07:04:06;5.38;;;4.38;;
54269;SDS011;40181;51.560;13.000;2023-10-19T07:06:35;7.60;;;4.88;;
54269;SDS011;40181;51.560;13.000;2023-10-19T07:09:04;6.47;;;4.85;;
54269;SDS011;40181;51.560;13.000;2023-10-19T07:11:35;8.70;;;5.20;;
54269;SDS011;40181;51.560;13.000;2023-10-19T07:14:07;5.60;;;5.03;;
54269;SDS011;40181;51.560;13.000;2023-10-19T07:16:38;5.90;;;4.32;;
54269;SDS011;40181;51.560;13.000;2023-10-19T07:19:07;6.85;;;4.78;;
54269;SDS011;40181;51.560;13.000;2023-10-19T07:21:37;6.05;;;4.07;;
54269;SDS011;40181;51.560;13.000;2023-10-19T07:24:08;5.38;;;4.82;;
54269;SDS011;40181;51.560;13.000;2023-10-19T07:26:38;6.53;;;5.20;;
54269;SDS011;40181;51.560;13.000;2023-10-19T07:29:21;6.65;;;4.90;;
54269;SDS011;40181;51.560;13.000;2023-10-19T07:31:50;5.65;;;5.05;;
54269;SDS011;40181;51.560;13.000;2023-10-19T07:34:20;5.75;;;4.47;;
54269;SDS011;40181;51.560;13.000;2023-10-19T07:36:53;5.20;;;4.00;;
54269;SDS011;40181;51.560;13.000;2023-10-19T07:39:24;5.57;;;3.67;;
54269;SDS011;40181;51.560;13.000;2023-10-19T07:41:54;4.97;;;3.40;;
54269;SDS011;40181;51.560;13.000;2023-10-19T07:44:27;3.75;;;3.10;;
54269;SDS011;40181;51.560;13.000;2023-10-19T07:46:57;4.18;;;3.63;;
54269;SDS011;40181;51.560;13.000;2023-10-19T07:49:26;3.70;;;3.20;;
54269;SDS011;40181;51.560;13.000;2023-10-19T07:51:55;9.40;;;4.32;;
54269;SDS011;40181;51.560;13.000;2023-10-19T07:54:25;5.60;;;3.70;;
54269;SDS011;40181;51.560;13.000;2023-10-19T07:56:55;6.18;;;4.38;;
54269;SDS011;40181;51.560;13.000;2023-10-19T07:59:31;4.22;;;3.22;;
54269;SDS011;40181;51.560;13.000;2023-10-19T08:02:00;4.93;;;4.30;;
54269;SDS011;40181;51.560;13.000;2023-10-19T08:04:30;4.65;;;3.83;;
54269;SDS011;40181;51.560;13.000;2023-10-19T08:07:00;7.30;;;4.68;;
54269;SDS011;40181;51.560;13.000;2023-10-19T08:09:29;5.32;;;3.38;;
54269;SDS011;40181;51.560;13.000;2023-10-19T08:14:33;4.70;;;3.72;;
54269;SDS011;40181;51.560;13.000;2023-10-19T08:17:02;5.03;;;3.85;;
54269;SDS011;40181;51.560;13.000;2023-10-19T08:19:34;4.35;;;3.35;;
54269;SDS011;40181;51.560;13.000;2023-10-19T08:22:03;6.25;;;5.20;;
54269;SDS011;40181;51.560;13.000;2023-10-19T08:24:32;4.78;;;3.95;;
54269;SDS011;40181;51.560;13.000;2023-10-19T08:27:02;4.15;;;3.50;;
54269;SDS011;40181;51.560;13.000;2023-10-19T08:29:34;4.57;;;3.88;;
54269;SDS011;40181;51.560;13.000;2023-10-19T08:32:04;5.28;;;4.40;;
54269;SDS011;40181;51.560;13.000;2023-10-19T08:34:33;7.45;;;4.82;;
54269;SDS011;40181;51.560;13.000;2023-10-19T08:37:04;4.80;;;3.78;;
54269;SDS011;40181;51.560;13.000;2023-10-19T08:39:34;6.72;;;5.18;;
54269;SDS011;40181;51.560;13.000;2023-10-19T08:42:04;8.52;;;5.35;;
54269;SDS011;40181;51.560;13.000;2023-10-19T08:44:38;8.02;;;5.10;;
54269;SDS011;40181;51.560;13.000;2023-10-19T08:47:07;6.30;;;4.85;;
54269;SDS011;40181;51.560;13.000;2023-10-19T08:49:37;4.97;;;4.47;;
54269;SDS011;40181;51.560;13.000;2023-10-19T08:52:06;6.75;;;5.55;;
54269;SDS011;40181;51.560;13.000;2023-10-19T08:54:37;8.15;;;7.07;;
54269;SDS011;40181;51.560;13.000;2023-10-19T08:57:06;8.93;;;6.28;;
54269;SDS011;40181;51.560;13.000;2023-10-19T08:59:38;5.13;;;4.35;;
54269;SDS011;40181;51.560;13.000;2023-10-19T09:02:08;6.72;;;5.95;;
54269;SDS011;40181;51.560;13.000;2023-10-19T09:04:41;8.98;;;6.22;;
54269;SDS011;40181;51.560;13.000;2023-10-19T09:07:11;9.43;;;6.53;;
54269;SDS011;40181;51.560;13.000;2023-10-19T09:09:40;9.80;;;5.93;;
54269;SDS011;40181;51.560;13.000;2023-10-19T09:12:12;7.97;;;6.45;;
54269;SDS011;40181;51.560;13.000;2023-10-19T09:14:44;6.82;;;5.28;;
54269;SDS011;40181;51.560;13.000;2023-10-19T09:17:15;9.02;;;6.30;;
54269;SDS011;40181;51.560;13.000;2023-10-19T09:19:45;8.48;;;5.85;;
54269;SDS011;40181;51.560;13.000;2023-10-19T09:22:14;6.70;;;6.00;;
54269;SDS011;40181;51.560;13.000;2023-10-19T09:24:47;10.90;;;7.80;;
54269;SDS011;40181;51.560;13.000;2023-10-19T09:29:50;9.60;;;5.85;;
54269;SDS011;40181;51.560;13.000;2023-10-19T09:32:20;8.45;;;6.88;;
54269;SDS011;40181;51.560;13.000;2023-10-19T09:34:50;7.85;;;6.15;;
54269;SDS011;40181;51.560;13.000;2023-10-19T09:37:21;7.95;;;7.15;;
54269;SDS011;40181;51.560;13.000;2023-10-19T09:39:51;9.10;;;7.88;;
54269;SDS011;40181;51.560;13.000;2023-10-19T09:42:21;11.30;;;7.60;;
54269;SDS011;40181;51.560;13.000;2023-10-19T09:44:59;8.60;;;6.88;;
54269;SDS011;40181;51.560;13.000;2023-10-19T09:47:32;10.13;;;7.88;;
54269;SDS011;40181;51.560;13.000;2023-10-19T09:50:07;8.98;;;6.72;;
54269;SDS011;40181;51.560;13.000;2023-10-19T09:52:37;8.48;;;7.05;;
54269;SDS011;40181;51.560;13.000;2023-10-19T09:55:10;8.75;;;7.85;;
54269;SDS011;40181;51.560;13.000;2023-10-19T09:57:49;7.80;;;7.07;;
54269;SDS011;40181;51.560;13.000;2023-10-19T10:00:26;8.27;;;6.85;;
54269;SDS011;40181;51.560;13.000;2023-10-19T10:02:57;10.82;;;7.28;;
54269;SDS011;40181;51.560;13.000;2023-10-19T10:08:30;14.50;;;7.28;;
54269;SDS011;40181;51.560;13.000;2023-10-19T10:11:12;11.00;;;8.30;;
54269;SDS011;40181;51.560;13.000;2023-10-19T10:13:47;11.57;;;8.68;;
54269;SDS011;40181;51.560;13.000;2023-10-19T10:16:21;10.02;;;7.97;;
54269;SDS011;40181;51.560;13.000;2023-10-19T10:18:54;7.65;;;6.85;;
54269;SDS011;40181;51.560;13.000;2023-10-19T10:21:25;10.15;;;7.47;;
54269;SDS011;40181;51.560;13.000;2023-10-19T10:23:56;6.68;;;6.05;;
54269;SDS011;40181;51.560;13.000;2023-10-19T10:26:28;6.13;;;4.65;;
54269;SDS011;40181;51.560;13.000;2023-10-19T10:29:11;9.25;;;6.70;;
54269;SDS011;40181;51.560;13.000;2023-10-19T10:31:47;8.38;;;7.05;;
54269;SDS011;40181;51.560;13.000;2023-10-19T10:37:12;7.70;;;6.45;;
54269;SDS011;40181;51.560;13.000;2023-10-19T10:39:41;7.25;;;5.75;;
54269;SDS011;40181;51.560;13.000;2023-10-19T10:42:12;8.05;;;6.20;;
54269;SDS011;40181;51.560;13.000;2023-10-19T10:44:43;7.53;;;5.90;;
54269;SDS011;40181;51.560;13.000;2023-10-19T10:47:20;9.27;;;6.45;;
54269;SDS011;40181;51.560;13.000;2023-10-19T10:49:51;6.55;;;5.70;;
54269;SDS011;40181;51.560;13.000;2023-10-19T10:52:28;7.97;;;5.95;;
54269;SDS011;40181;51.560;13.000;2023-10-19T10:55:02;8.60;;;7.68;;
54269;SDS011;40181;51.560;13.000;2023-10-19T10:57:36;8.27;;;7.10;;
54269;SDS011;40181;51.560;13.000;2023-10-19T11:00:09;7.15;;;6.45;;
54269;SDS011;40181;51.560;13.000;2023-10-19T11:02:47;7.50;;;5.93;;
54269;SDS011;40181;51.560;13.000;2023-10-19T11:05:29;5.93;;;4.88;;
54269;SDS011;40181;51.560;13.000;2023-10-19T11:08:04;5.85;;;4.57;;
54269;SDS011;40181;51.560;13.000;2023-10-19T11:10:38;6.43;;;5.43;;
54269;SDS011;40181;51.560;13.000;2023-10-19T11:13:10;8.93;;;5.55;;
54269;SDS011;40181;51.560;13.000;2023-10-19T11:15:47;7.53;;;5.50;;
54269;SDS011;40181;51.560;13.000;2023-10-19T11:18:31;7.15;;;5.18;;
54269;SDS011;40181;51.560;13.000;2023-10-19T11:21:06;7.88;;;5.70;;
54269;SDS011;40181;51.560;13.000;2023-10-19T11:23:37;6.20;;;5.15;;
54269;SDS011;40181;51.560;13.000;2023-10-19T11:26:09;7.22;;;5.30;;
54269;SDS011;40181;51.560;13.000;2023-10-19T11:28:40;7.25;;;5.57;;
54269;SDS011;40181;51.560;13.000;2023-10-19T11:31:16;7.45;;;5.80;;
54269;SDS011;40181;51.560;13.000;2023-10-19T11:33:51;11.93;;;6.82;;
54269;SDS011;40181;51.560;13.000;2023-10-19T11:36:23;8.93;;;6.30;;
54269;SDS011;40181;51.560;13.000;2023-10-19T11:38:53;9.40;;;6.93;;
54269;SDS011;40181;51.560;13.000;2023-10-19T11:41:22;8.82;;;6.68;;
54269;SDS011;40181;51.560;13.000;2023-10-19T11:43:52;7.53;;;6.35;;
54269;SDS011;40181;51.560;13.000;2023-10-19T11:46:22;8.37;;;5.57;;
54269;SDS011;40181;51.560;13.000;2023-10-19T11:48:57;6.90;;;5.72;;
54269;SDS011;40181;51.560;13.000;2023-10-19T11:51:28;6.93;;;5.70;;
54269;SDS011;40181;51.560;13.000;2023-10-19T11:53:58;7.05;;;5.97;;
54269;SDS011;40181;51.560;13.000;2023-10-19T11:56:28;6.18;;;5.43;;
54269;SDS011;40181;51.560;13.000;2023-10-19T11:58:57;7.15;;;5.35;;
54269;SDS011;40181;51.560;13.000;2023-10-19T12:01:27;7.40;;;5.33;;
54269;SDS011;40181;51.560;13.000;2023-10-19T12:03:58;6.10;;;5.22;;
54269;SDS011;40181;51.560;13.000;2023-10-19T12:06:28;10.18;;;6.65;;
54269;SDS011;40181;51.560;13.000;2023-10-19T12:08:57;8.45;;;6.32;;
54269;SDS011;40181;51.560;13.000;2023-10-19T12:11:39;7.95;;;6.15;;
54269;SDS011;40181;51.560;13.000;2023-10-19T12:14:09;5.43;;;4.93;;
54269;SDS011;40181;51.560;13.000;2023-10-19T12:19:13;4.82;;;4.22;;
54269;SDS011;40181;51.560;13.000;2023-10-19T12:21:44;6.03;;;5.28;;
54269;SDS011;40181;51.560;13.000;2023-10-19T12:24:15;7.45;;;4.25;;
54269;SDS011;40181;51.560;13.000;2023-10-19T12:26:45;8.50;;;5.00;;
54269;SDS011;40181;51.560;13.000;2023-10-19T12:29:15;6.53;;;5.35;;
54269;SDS011;40181;51.560;13.000;2023-10-19T12:31:46;5.15;;;4.65;;
54269;SDS011;40181;51.560;13.000;2023-10-19T12:34:18;5.68;;;5.07;;
54269;SDS011;40181;51.560;13.000;2023-10-19T12:36:47;6.07;;;5.03;;
54269;SDS011;40181;51.560;13.000;2023-10-19T12:39:17;8.95;;;6.18;;
54269;SDS011;40181;51.560;13.000;2023-10-19T12:41:59;8.82;;;6.35;;
54269;SDS011;40181;51.560;13.000;2023-10-19T12:44:29;7.20;;;6.20;;
54269;SDS011;40181;51.560;13.000;2023-10-19T12:47:04;7.50;;;5.47;;
54269;SDS011;40181;51.560;13.000;2023-10-19T12:49:38;7.85;;;5.85;;
54269;SDS011;40181;51.560;13.000;2023-10-19T12:52:10;6.97;;;5.35;;
54269;SDS011;40181;51.560;13.000;2023-10-19T12:54:39;5.72;;;5.15;;
54269;SDS011;40181;51.560;13.000;2023-10-19T12:57:13;7.60;;;5.70;;
54269;SDS011;40181;51.560;13.000;2023-10-19T12:59:44;6.80;;;5.38;;
54269;SDS011;40181;51.560;13.000;2023-10-19T13:02:13;6.68;;;5.50;;
54269;SDS011;40181;51.560;13.000;2023-10-19T13:04:48;10.60;;;5.50;;
54269;SDS011;40181;51.560;13.000;2023-10-19T13:07:17;4.88;;;4.38;;
54269;SDS011;40181;51.560;13.000;2023-10-19T13:09:50;5.63;;;4.90;;
54269;SDS011;40181;51.560;13.000;2023-10-19T13:12:20;6.85;;;4.47;;
54269;SDS011;40181;51.560;13.000;2023-10-19T13:14:50;5.82;;;4.45;;
54269;SDS011;40181;51.560;13.000;2023-10-19T13:17:21;5.90;;;5.30;;
54269;SDS011;40181;51.560;13.000;2023-10-19T13:19:53;5.57;;;4.85;;
54269;SDS011;40181;51.560;13.000;2023-10-19T13:22:26;5.70;;;4.72;;
54269;SDS011;40181;51.560;13.000;2023-10-19T13:24:58;7.50;;;5.35;;
54269;SDS011;40181;51.560;13.000;2023-10-19T13:27:28;6.45;;;5.43;;
54269;SDS011;40181;51.560;13.000;2023-10-19T13:29:57;7.18;;;5.32;;
54269;SDS011;40181;51.560;13.000;2023-10-19T13:32:28;7.55;;;5.53;;
54269;SDS011;40181;51.560;13.000;2023-10-19T13:35:00;12.00;;;5.60;;
54269;SDS011;40181;51.560;13.000;2023-10-19T13:37:29;9.48;;;6.07;;
54269;SDS011;40181;51.560;13.000;2023-10-19T13:39:58;5.75;;;5.00;;
54269;SDS011;40181;51.560;13.000;2023-10-19T13:44:59;6.03;;;4.33;;
54269;SDS011;40181;51.560;13.000;2023-10-19T13:47:29;5.63;;;4.70;;
54269;SDS011;40181;51.560;13.000;2023-10-19T13:50:01;6.78;;;4.93;;
54269;SDS011;40181;51.560;13.000;2023-10-19T13:52:32;7.70;;;5.68;;
54269;SDS011;40181;51.560;13.000;2023-10-19T13:55:02;6.97;;;5.13;;
54269;SDS011;40181;51.560;13.000;2023-10-19T13:57:32;6.55;;;5.20;;
54269;SDS011;40181;51.560;13.000;2023-10-19T14:00:03;4.97;;;4.38;;
54269;SDS011;40181;51.560;13.000;2023-10-19T14:02:36;6.22;;;5.40;;
54269;SDS011;40181;51.560;13.000;2023-10-19T14:05:08;8.68;;;5.55;;
54269;SDS011;40181;51.560;13.000;2023-10-19T14:07:38;8.23;;;5.95;;
54269;SDS011;40181;51.560;13.000;2023-10-19T14:10:09;5.85;;;5.20;;
54269;SDS011;40181;51.560;13.000;2023-10-19T14:12:40;6.63;;;4.97;;
54269;SDS011;40181;51.560;13.000;2023-10-19T14:15:12;7.55;;;5.40;;
54269;SDS011;40181;51.560;13.000;2023-10-19T14:17:44;7.93;;;5.90;;
54269;SDS011;40181;51.560;13.000;2023-10-19T14:20:17;5.97;;;4.75;;
54269;SDS011;40181;51.560;13.000;2023-10-19T14:22:49;8.93;;;5.70;;
54269;SDS011;40181;51.560;13.000;2023-10-19T14:25:20;7.63;;;5.25;;
54269;SDS011;40181;51.560;13.000;2023-10-19T14:27:50;7.07;;;5.10;;
54269;SDS011;40181;51.560;13.000;2023-10-19T14:30:24;6.45;;;5.15;;
54269;SDS011;40181;51.560;13.000;2023-10-19T14:32:56;7.00;;;5.07;;
54269;SDS011;40181;51.560;13.000;2023-10-19T14:35:28;6.30;;;5.15;;
54269;SDS011;40181;51.560;13.000;2023-10-19T14:38:00;6.78;;;5.88;;
54269;SDS011;40181;51.560;13.000;2023-10-19T14:40:31;7.32;;;5.22;;
54269;SDS011;40181;51.560;13.000;2023-10-19T14:43:01;6.95;;;4.32;;
54269;SDS011;40181;51.560;13.000;2023-10-19T14:45:30;5.82;;;4.60;;
54269;SDS011;40181;51.560;13.000;2023-10-19T14:48:00;4.93;;;4.28;;
54269;SDS011;40181;51.560;13.000;2023-10-19T14:50:36;5.63;;;4.72;;
54269;SDS011;40181;51.560;13.000;2023-10-19T14:53:07;5.13;;;4.10;;
54269;SDS011;40181;51.560;13.000;2023-10-19T14:55:37;6.57;;;4.25;;
54269;SDS011;40181;51.560;13.000;2023-10-19T14:58:06;7.57;;;5.63;;
54269;SDS011;40181;51.560;13.000;2023-10-19T15:00:35;5.82;;;4.90;;
54269;SDS011;40181;51.560;13.000;2023-10-19T15:03:07;7.30;;;4.60;;
54269;SDS011;40181;51.560;13.000;2023-10-19T15:05:41;6.22;;;3.92;;
54269;SDS011;40181;51.560;13.000;2023-10-19T15:08:10;6.07;;;5.00;;
54269;SDS011;40181;51.560;13.000;2023-10-19T15:10:40;5.20;;;4.47;;
54269;SDS011;40181;51.560;13.000;2023-10-19T15:13:10;5.88;;;4.88;;
54269;SDS011;40181;51.560;13.000;2023-10-19T15:15:40;5.80;;;4.25;;
54269;SDS011;40181;51.560;13.000;2023-10-19T15:18:10;5.63;;;4.40;;